createdAt,value
2023-02-18T00:01:20.906Z,5.80
2023-02-18T00:03:49.586Z,5.55
2023-02-18T00:06:19.989Z,4.95
2023-02-18T00:08:48.655Z,5.38
2023-02-18T00:11:20.278Z,4.82
2023-02-18T00:13:52.039Z,5.00
2023-02-18T00:16:19.932Z,5.40
2023-02-18T00:18:47.716Z,4.93
2023-02-18T00:21:15.750Z,5.13
2023-02-18T00:23:44.108Z,4.63
2023-02-18T00:26:14.536Z,4.70
2023-02-18T00:28:44.471Z,4.80
2023-02-18T00:31:14.884Z,4.90
2023-02-18T00:33:43.324Z,4.80
2023-02-18T00:36:13.269Z,4.80
2023-02-18T00:38:44.829Z,4.97
2023-02-18T00:41:12.650Z,4.47
2023-02-18T00:43:40.444Z,5.18
2023-02-18T00:46:10.103Z,5.10
2023-02-18T00:48:38.106Z,4.82
2023-02-18T00:51:07.340Z,5.03
2023-02-18T00:53:35.860Z,4.80
2023-02-18T00:56:03.721Z,4.50
2023-02-18T00:58:31.657Z,4.60
2023-02-18T01:00:59.472Z,4.70
2023-02-18T01:03:28.669Z,4.72
2023-02-18T01:05:56.644Z,4.78
2023-02-18T01:08:24.573Z,5.10
2023-02-18T01:10:58.664Z,4.85
2023-02-18T01:13:26.948Z,4.93
2023-02-18T01:15:55.082Z,4.85
2023-02-18T01:18:23.842Z,5.10
2023-02-18T01:20:53.122Z,4.30
2023-02-18T01:23:21.727Z,3.83
2023-02-18T01:25:49.703Z,3.90
2023-02-18T01:28:18.765Z,3.78
2023-02-18T01:30:46.627Z,3.75
2023-02-18T01:33:14.442Z,3.70
2023-02-18T01:35:42.796Z,3.25
2023-02-18T01:38:11.896Z,3.60
2023-02-18T01:40:47.925Z,3.60
2023-02-18T01:43:16.986Z,3.70
2023-02-18T01:46:07.932Z,3.67
2023-02-18T01:48:40.198Z,4.20
2023-02-18T01:51:11.961Z,3.80
2023-02-18T01:53:48.218Z,3.45
2023-02-18T01:56:21.654Z,3.40
2023-02-18T01:58:50.795Z,3.28
2023-02-18T02:01:18.797Z,3.80
2023-02-18T02:03:46.544Z,3.17
2023-02-18T02:06:18.434Z,3.47
2023-02-18T02:08:50.274Z,3.50
2023-02-18T02:11:56.383Z,3.53
2023-02-18T02:14:40.758Z,3.40
2023-02-18T02:17:17.174Z,3.42
2023-02-18T02:20:18.186Z,3.40
2023-02-18T02:23:42.743Z,3.03
2023-02-18T02:26:47.661Z,3.10
2023-02-18T02:29:56.678Z,3.70
2023-02-18T02:33:03.612Z,3.75
2023-02-18T02:35:35.937Z,3.63
2023-02-18T02:38:08.441Z,3.40
2023-02-18T02:40:42.321Z,4.30
2023-02-18T02:43:19.288Z,3.38
2023-02-18T02:45:55.740Z,3.78
2023-02-18T02:48:34.110Z,4.10
2023-02-18T02:51:09.045Z,3.90
2023-02-18T02:53:38.117Z,3.70
2023-02-18T02:56:06.261Z,3.70
2023-02-18T02:58:34.572Z,3.97
2023-02-18T03:01:26.080Z,3.55
2023-02-18T03:04:42.213Z,3.50
2023-02-18T03:07:20.627Z,3.60
2023-02-18T03:10:06.898Z,3.78
2023-02-18T03:12:41.611Z,3.42
2023-02-18T03:15:20.207Z,2.97
2023-02-18T03:17:56.940Z,3.10
2023-02-18T03:20:29.407Z,3.40
2023-02-18T03:23:02.230Z,3.83
2023-02-18T03:28:03.957Z,3.45
2023-02-18T03:30:36.223Z,3.22
2023-02-18T03:33:07.317Z,3.75
2023-02-18T03:35:37.505Z,4.13
2023-02-18T03:38:13.479Z,4.35
2023-02-18T03:40:41.529Z,4.55
2023-02-18T03:43:09.972Z,4.45
2023-02-18T03:45:37.767Z,4.18
2023-02-18T03:48:06.641Z,4.32
2023-02-18T03:50:34.425Z,4.40
2023-02-18T03:53:02.151Z,4.57
2023-02-18T03:55:31.369Z,4.93
2023-02-18T03:57:59.099Z,4.60
2023-02-18T04:00:26.844Z,4.65
2023-02-18T04:02:54.538Z,4.50
2023-02-18T04:05:22.408Z,4.53
2023-02-18T04:07:50.060Z,4.45
2023-02-18T04:10:18.275Z,5.00
2023-02-18T04:12:47.502Z,5.10
2023-02-18T04:15:15.463Z,4.75
2023-02-18T04:17:43.198Z,4.70
2023-02-18T04:20:11.884Z,4.40
2023-02-18T04:22:39.634Z,4.60
2023-02-18T04:25:08.298Z,4.60
2023-02-18T04:27:36.080Z,5.03
2023-02-18T04:30:06.830Z,5.10
2023-02-18T04:32:34.592Z,5.05
2023-02-18T04:35:02.400Z,5.43
2023-02-18T04:37:30.510Z,4.97
2023-02-18T04:39:58.348Z,4.95
2023-02-18T04:42:26.276Z,5.50
2023-02-18T04:44:54.058Z,5.20
2023-02-18T04:47:23.428Z,5.10
2023-02-18T04:49:51.156Z,4.80
2023-02-18T04:52:18.968Z,5.05
2023-02-18T04:54:47.197Z,5.47
2023-02-18T04:57:15.006Z,5.43
2023-02-18T04:59:42.975Z,4.85
2023-02-18T05:02:10.769Z,5.40
2023-02-18T05:04:39.860Z,5.45
2023-02-18T05:07:07.617Z,5.53
2023-02-18T05:09:38.334Z,5.20
2023-02-18T05:12:07.318Z,5.20
2023-02-18T05:14:35.133Z,5.22
2023-02-18T05:17:02.987Z,5.10
2023-02-18T05:19:30.900Z,5.18
2023-02-18T05:22:00.040Z,5.35
2023-02-18T05:24:27.809Z,5.05
2023-02-18T05:26:55.501Z,5.40
2023-02-18T05:29:23.213Z,5.38
2023-02-18T05:31:52.125Z,5.40
2023-02-18T05:34:20.237Z,5.30
2023-02-18T05:36:48.051Z,5.32
2023-02-18T05:39:17.126Z,5.00
2023-02-18T05:41:44.886Z,5.28
2023-02-18T05:44:31.099Z,5.35
2023-02-18T05:46:59.374Z,5.30
2023-02-18T05:49:27.188Z,5.15
2023-02-18T05:51:54.925Z,5.57
2023-02-18T05:54:24.289Z,5.30
2023-02-18T05:56:52.339Z,5.65
2023-02-18T05:59:20.800Z,5.10
2023-02-18T06:01:48.995Z,5.15
2023-02-18T06:04:17.110Z,5.55
2023-02-18T06:06:44.993Z,5.10
2023-02-18T06:09:12.848Z,5.45
2023-02-18T06:11:42.057Z,5.25
2023-02-18T06:14:09.864Z,5.80
2023-02-18T06:16:37.739Z,5.13
2023-02-18T06:19:05.671Z,5.00
2023-02-18T06:21:33.650Z,5.15
2023-02-18T06:24:01.516Z,5.55
2023-02-18T06:26:29.424Z,5.18
2023-02-18T06:28:58.562Z,5.43
2023-02-18T06:31:26.518Z,5.50
2023-02-18T06:33:54.358Z,5.50
2023-02-18T06:36:22.587Z,5.57
2023-02-18T06:38:50.492Z,5.68
2023-02-18T06:41:18.392Z,5.93
2023-02-18T06:43:46.114Z,5.65
2023-02-18T06:46:15.241Z,5.97
2023-02-18T06:48:43.110Z,5.72
2023-02-18T06:51:10.863Z,6.18
2023-02-18T06:53:38.599Z,6.20
2023-02-18T06:56:07.250Z,6.40
2023-02-18T06:58:35.170Z,6.65
2023-02-18T07:01:02.875Z,5.97
2023-02-18T07:03:32.180Z,6.53
2023-02-18T07:05:59.902Z,7.40
2023-02-18T07:08:27.750Z,7.15
2023-02-18T07:10:55.447Z,6.90
2023-02-18T07:13:23.337Z,6.93
2023-02-18T07:15:52.449Z,6.82
2023-02-18T07:18:20.177Z,6.80
2023-02-18T07:20:49.311Z,6.50
2023-02-18T07:23:16.982Z,7.03
2023-02-18T07:25:44.704Z,6.68
2023-02-18T07:28:14.609Z,7.10
2023-02-18T07:30:42.270Z,7.32
2023-02-18T07:33:09.975Z,6.75
2023-02-18T07:35:37.717Z,7.15
2023-02-18T07:38:07.111Z,6.57
2023-02-18T07:40:34.817Z,6.80
2023-02-18T07:43:02.558Z,6.70
2023-02-18T07:45:30.292Z,6.88
2023-02-18T07:47:58.090Z,6.70
2023-02-18T07:50:25.924Z,7.13
2023-02-18T07:52:53.644Z,6.22
2023-02-18T07:55:22.691Z,7.28
2023-02-18T07:58:01.116Z,6.88
2023-02-18T08:00:28.883Z,6.82
2023-02-18T08:02:56.629Z,7.15
2023-02-18T08:05:24.606Z,6.78
2023-02-18T08:07:52.433Z,6.97
2023-02-18T08:10:20.410Z,6.82
2023-02-18T08:12:49.522Z,6.90
2023-02-18T08:15:17.525Z,7.38
2023-02-18T08:17:45.312Z,6.80
2023-02-18T08:20:13.497Z,6.78
2023-02-18T08:22:41.334Z,6.93
2023-02-18T08:25:18.116Z,7.03
2023-02-18T08:27:57.598Z,6.95
2023-02-18T08:30:25.763Z,8.50
2023-02-18T08:32:53.957Z,7.00
2023-02-18T08:35:21.764Z,6.45
2023-02-18T08:37:53.120Z,6.63
2023-02-18T08:40:22.876Z,7.15
2023-02-18T08:42:50.664Z,6.57
2023-02-18T08:45:20.177Z,6.70
2023-02-18T08:48:18.072Z,6.40
2023-02-18T08:50:36.294Z,7.00
2023-02-18T08:53:04.892Z,7.05
2023-02-18T08:55:33.921Z,6.57
2023-02-18T08:58:02.057Z,6.65
2023-02-18T09:00:31.227Z,7.68
2023-02-18T09:02:58.934Z,6.90
2023-02-18T09:05:26.686Z,6.93
2023-02-18T09:07:54.384Z,6.93
2023-02-18T09:10:22.264Z,7.00
2023-02-18T09:12:50.054Z,7.40
2023-02-18T09:15:18.333Z,6.60
2023-02-18T09:17:47.765Z,7.03
2023-02-18T09:20:15.863Z,6.85
2023-02-18T09:22:43.684Z,6.97
2023-02-18T09:25:11.662Z,6.72
2023-02-18T09:27:39.406Z,6.30
2023-02-18T09:30:08.561Z,6.35
2023-02-18T09:32:36.395Z,6.72
2023-02-18T09:35:06.657Z,6.80
2023-02-18T09:37:34.352Z,6.68
2023-02-18T09:40:02.131Z,7.07
2023-02-18T09:42:33.313Z,7.10
2023-02-18T09:45:03.670Z,6.88
2023-02-18T09:47:36.029Z,6.70
2023-02-18T09:50:09.994Z,6.88
2023-02-18T09:52:39.760Z,6.70
2023-02-18T09:55:19.649Z,6.78
2023-02-18T09:57:50.633Z,6.78
2023-02-18T10:00:22.522Z,6.28
2023-02-18T10:02:56.566Z,6.83
2023-02-18T10:05:29.082Z,6.43
2023-02-18T10:08:01.580Z,6.28
2023-02-18T10:10:37.651Z,6.95
2023-02-18T10:13:05.972Z,6.65
2023-02-18T10:15:34.258Z,7.20
2023-02-18T10:18:03.718Z,7.15
2023-02-18T10:20:34.913Z,6.68
2023-02-18T10:23:06.101Z,6.60
2023-02-18T10:25:39.158Z,6.97
2023-02-18T10:28:06.890Z,6.35
2023-02-18T10:30:40.724Z,6.80
2023-02-18T10:33:33.412Z,7.43
2023-02-18T10:36:19.031Z,7.45
2023-02-18T10:39:03.995Z,8.02
2023-02-18T10:41:40.541Z,7.63
2023-02-18T10:44:18.722Z,8.15
2023-02-18T10:46:55.653Z,8.57
2023-02-18T10:49:44.441Z,9.23
2023-02-18T10:52:18.256Z,10.30
2023-02-18T10:54:52.938Z,8.20
2023-02-18T10:57:23.208Z,7.40
2023-02-18T11:00:10.677Z,7.72
2023-02-18T11:02:40.483Z,7.80
2023-02-18T11:05:20.641Z,7.78
2023-02-18T11:07:53.018Z,7.15
2023-02-18T11:10:25.561Z,6.38
2023-02-18T11:12:59.047Z,6.70
2023-02-18T11:15:27.925Z,6.55
2023-02-18T11:17:57.473Z,5.88
2023-02-18T11:20:31.692Z,5.78
2023-02-18T11:23:16.698Z,5.80
2023-02-18T11:25:56.033Z,5.43
2023-02-18T11:28:38.514Z,5.45
2023-02-18T11:31:06.714Z,5.05
2023-02-18T11:33:38.662Z,5.40
2023-02-18T11:36:18.719Z,5.30
2023-02-18T11:38:52.081Z,4.85
2023-02-18T11:41:21.956Z,4.47
2023-02-18T11:43:52.614Z,4.65
2023-02-18T11:46:22.833Z,5.30
2023-02-18T11:48:51.718Z,4.60
2023-02-18T11:51:21.495Z,4.70
2023-02-18T11:54:00.708Z,4.88
2023-02-18T11:56:32.206Z,4.88
2023-02-18T11:59:01.168Z,4.47
2023-02-18T12:01:44.881Z,4.93
2023-02-18T12:04:16.993Z,4.55
2023-02-18T12:06:51.614Z,4.95
2023-02-18T12:09:30.185Z,4.97
2023-02-18T12:12:02.283Z,4.78
2023-02-18T12:14:30.996Z,5.30
2023-02-18T12:17:17.035Z,4.80
2023-02-18T12:20:01.631Z,4.63
2023-02-18T12:22:42.581Z,4.65
2023-02-18T12:25:37.506Z,4.25
2023-02-18T12:28:19.094Z,5.13
2023-02-18T12:31:07.738Z,4.50
2023-02-18T12:33:48.590Z,4.93
2023-02-18T12:36:25.993Z,4.63
2023-02-18T12:39:02.832Z,4.43
2023-02-18T12:41:44.423Z,4.57
2023-02-18T12:44:24.840Z,4.85
2023-02-18T12:47:10.456Z,4.43
2023-02-18T12:49:55.671Z,4.30
2023-02-18T12:52:36.660Z,4.32
2023-02-18T12:55:28.535Z,4.15
2023-02-18T12:58:07.838Z,4.10
2023-02-18T13:01:02.159Z,3.97
2023-02-18T13:04:01.130Z,3.65
2023-02-18T13:06:43.654Z,4.22
2023-02-18T13:09:24.789Z,4.00
2023-02-18T13:12:03.217Z,4.20
2023-02-18T13:14:35.530Z,3.95
2023-02-18T13:17:06.769Z,3.88
2023-02-18T13:19:38.722Z,4.07
2023-02-18T13:22:10.163Z,4.00
2023-02-18T13:24:40.693Z,4.07
2023-02-18T13:27:18.594Z,3.60
2023-02-18T13:29:59.132Z,3.33
2023-02-18T13:32:32.850Z,3.85
2023-02-18T13:35:10.497Z,3.88
2023-02-18T13:37:51.925Z,3.92
2023-02-18T13:40:22.707Z,3.25
2023-02-18T13:42:52.350Z,3.05
2023-02-18T13:45:30.253Z,3.20
2023-02-18T13:47:59.611Z,3.50
2023-02-18T13:50:44.110Z,3.38
2023-02-18T13:53:24.280Z,3.90
2023-02-18T13:55:57.896Z,3.60
2023-02-18T13:58:30.334Z,3.65
2023-02-18T14:01:05.083Z,3.60
2023-02-18T14:03:52.217Z,3.72
2023-02-18T14:06:21.526Z,3.10
2023-02-18T14:08:50.958Z,3.55
2023-02-18T14:11:40.391Z,3.20
2023-02-18T14:14:34.777Z,3.20
2023-02-18T14:17:35.214Z,3.30
2023-02-18T14:20:38.642Z,3.08
2023-02-18T14:26:09.328Z,3.13
2023-02-18T14:28:44.934Z,3.28
2023-02-18T14:31:34.425Z,3.95
2023-02-18T14:34:18.627Z,2.65
2023-02-18T14:36:57.564Z,2.92
2023-02-18T14:39:40.874Z,3.10
2023-02-18T14:42:21.514Z,2.80
2023-02-18T14:45:04.283Z,3.00
2023-02-18T14:47:45.843Z,2.78
2023-02-18T14:50:16.214Z,3.08
2023-02-18T14:52:47.005Z,3.03
2023-02-18T14:55:21.558Z,2.70
2023-02-18T14:57:53.825Z,2.95
2023-02-18T15:00:23.195Z,2.90
2023-02-18T15:02:52.662Z,2.72
2023-02-18T15:05:23.087Z,3.15
2023-02-18T15:08:02.980Z,2.95
2023-02-18T15:10:37.593Z,3.10
2023-02-18T15:13:10.847Z,2.97
2023-02-18T15:15:38.620Z,2.90
2023-02-18T15:18:06.755Z,3.30
2023-02-18T15:20:36.005Z,3.08
2023-02-18T15:23:03.859Z,3.08
2023-02-18T15:25:31.698Z,3.28
2023-02-18T15:27:59.460Z,3.25
2023-02-18T15:30:31.428Z,3.67
2023-02-18T15:33:03.118Z,3.60
2023-02-18T15:35:33.321Z,3.60
2023-02-18T15:38:02.263Z,3.60
2023-02-18T15:40:32.619Z,3.95
2023-02-18T15:43:03.135Z,3.53
2023-02-18T15:45:36.264Z,3.97
2023-02-18T15:48:06.012Z,3.70
2023-02-18T15:50:36.826Z,3.90
2023-02-18T15:53:08.611Z,3.63
2023-02-18T15:55:39.333Z,3.90
2023-02-18T15:58:13.220Z,4.20
2023-02-18T16:00:48.377Z,4.47
2023-02-18T16:03:21.233Z,4.40
2023-02-18T16:08:23.968Z,5.40
2023-02-18T16:10:56.316Z,4.93
2023-02-18T16:13:26.890Z,5.50
2023-02-18T16:15:56.984Z,4.40
2023-02-18T16:18:32.045Z,3.95
2023-02-18T16:21:04.370Z,4.35
2023-02-18T16:23:36.419Z,3.97
2023-02-18T16:26:15.787Z,4.10
2023-02-18T16:28:44.787Z,4.30
2023-02-18T16:31:16.620Z,4.13
2023-02-18T16:33:44.498Z,4.43
2023-02-18T16:36:16.307Z,4.20
2023-02-18T16:38:44.654Z,4.32
2023-02-18T16:41:14.926Z,4.72
2023-02-18T16:43:43.300Z,4.28
2023-02-18T16:46:17.003Z,4.50
2023-02-18T16:48:48.765Z,4.90
2023-02-18T16:51:19.543Z,4.85
2023-02-18T16:53:47.401Z,4.95
2023-02-18T16:56:16.945Z,4.95
2023-02-18T16:58:45.134Z,4.80
2023-02-18T17:01:23.852Z,5.10
2023-02-18T17:03:52.495Z,5.35
2023-02-18T17:06:20.508Z,4.97
2023-02-18T17:08:48.855Z,5.22
2023-02-18T17:11:23.816Z,5.07
2023-02-18T17:13:52.197Z,5.30
2023-02-18T17:16:23.083Z,4.78
2023-02-18T17:18:51.106Z,5.20
2023-02-18T17:21:21.541Z,5.43
2023-02-18T17:23:50.103Z,5.93
2023-02-18T17:26:21.321Z,5.13
2023-02-18T17:28:49.135Z,4.97
2023-02-18T17:31:20.213Z,5.45
2023-02-18T17:33:49.872Z,5.63
2023-02-18T17:36:17.748Z,5.60
2023-02-18T17:38:45.666Z,5.68
2023-02-18T17:41:13.874Z,5.45
2023-02-18T17:43:42.550Z,7.35
2023-02-18T17:46:13.459Z,6.00
2023-02-18T17:48:41.660Z,5.43
2023-02-18T17:51:21.326Z,5.80
2023-02-18T17:53:49.127Z,5.40
2023-02-18T17:56:16.903Z,5.53
2023-02-18T17:58:46.469Z,4.97
2023-02-18T18:01:14.336Z,5.65
2023-02-18T18:03:43.327Z,5.60
2023-02-18T18:06:17.234Z,5.60
2023-02-18T18:08:45.007Z,5.30
2023-02-18T18:11:17.396Z,5.80
2023-02-18T18:13:46.434Z,5.10
2023-02-18T18:16:16.520Z,5.85
2023-02-18T18:18:44.504Z,5.60
2023-02-18T18:21:20.810Z,5.72
2023-02-18T18:23:48.945Z,5.65
2023-02-18T18:26:16.749Z,5.78
2023-02-18T18:28:44.586Z,6.10
2023-02-18T18:31:16.006Z,5.30
2023-02-18T18:33:48.636Z,5.50
2023-02-18T18:36:19.615Z,5.82
2023-02-18T18:38:47.962Z,6.47
2023-02-18T18:41:18.220Z,5.72
2023-02-18T18:43:46.285Z,5.40
2023-02-18T18:46:14.127Z,5.50
2023-02-18T18:48:41.905Z,5.05
2023-02-18T18:51:15.992Z,5.70
2023-02-18T18:53:45.635Z,5.55
2023-02-18T18:56:14.172Z,4.93
2023-02-18T18:58:43.721Z,5.32
2023-02-18T19:01:16.266Z,5.32
2023-02-18T19:03:44.409Z,5.72
2023-02-18T19:06:12.309Z,5.53
2023-02-18T19:08:40.331Z,6.10
2023-02-18T19:11:12.444Z,6.22
2023-02-18T19:13:40.302Z,5.93
2023-02-18T19:16:14.005Z,5.47
2023-02-18T19:18:41.851Z,5.70
2023-02-18T19:21:09.867Z,5.88
2023-02-18T19:23:37.883Z,5.65
2023-02-18T19:26:06.375Z,5.70
2023-02-18T19:28:35.520Z,5.88
2023-02-18T19:31:03.463Z,5.82
2023-02-18T19:33:31.364Z,5.63
2023-02-18T19:35:59.100Z,6.00
2023-02-18T19:38:26.952Z,5.75
2023-02-18T19:40:56.694Z,5.68
2023-02-18T19:43:24.393Z,6.18
2023-02-18T19:45:53.594Z,5.75
2023-02-18T19:48:23.293Z,5.93
2023-02-18T19:50:51.088Z,5.97
2023-02-18T19:53:18.818Z,5.88
2023-02-18T19:55:46.629Z,5.85
2023-02-18T19:58:14.324Z,6.20
2023-02-18T20:00:43.667Z,6.20
2023-02-18T20:03:12.788Z,5.72
2023-02-18T20:05:40.612Z,5.70
2023-02-18T20:08:08.365Z,5.70
2023-02-18T20:10:36.452Z,5.40
2023-02-18T20:13:05.769Z,5.38
2023-02-18T20:15:33.548Z,5.13
2023-02-18T20:18:01.248Z,4.90
2023-02-18T20:20:30.544Z,5.50
2023-02-18T20:22:58.314Z,4.97
2023-02-18T20:25:26.694Z,4.97
2023-02-18T20:28:00.855Z,5.05
2023-02-18T20:30:29.284Z,5.25
2023-02-18T20:32:57.132Z,5.20
2023-02-18T20:35:24.942Z,4.80
2023-02-18T20:37:54.079Z,5.28
2023-02-18T20:40:21.862Z,4.80
2023-02-18T20:42:49.682Z,5.15
2023-02-18T20:45:17.970Z,4.93
2023-02-18T20:47:45.734Z,4.78
2023-02-18T20:50:13.637Z,4.40
2023-02-18T20:52:41.396Z,4.53
2023-02-18T20:55:10.688Z,4.63
2023-02-18T20:57:38.385Z,4.57
2023-02-18T21:00:07.710Z,4.50
2023-02-18T21:02:35.724Z,4.90
2023-02-18T21:05:04.051Z,4.97
2023-02-18T21:07:31.815Z,5.32
2023-02-18T21:09:59.592Z,4.50
2023-02-18T21:12:28.729Z,5.20
2023-02-18T21:14:56.457Z,4.93
2023-02-18T21:17:24.227Z,4.90
2023-02-18T21:19:52.096Z,5.35
2023-02-18T21:22:19.937Z,4.97
2023-02-18T21:24:47.698Z,5.13
2023-02-18T21:27:15.431Z,5.10
2023-02-18T21:29:44.709Z,5.28
2023-02-18T21:32:12.552Z,5.35
2023-02-18T21:34:40.447Z,5.18
2023-02-18T21:37:08.238Z,5.75
2023-02-18T21:39:36.071Z,5.15
2023-02-18T21:42:05.887Z,5.47
2023-02-18T21:44:41.718Z,5.20
2023-02-18T21:47:12.323Z,5.93
2023-02-18T21:49:40.093Z,5.32
2023-02-18T21:52:09.542Z,5.40
2023-02-18T21:54:40.399Z,5.28
2023-02-18T21:57:11.444Z,5.95
2023-02-18T21:59:40.014Z,5.72
2023-02-18T22:02:09.991Z,5.40
2023-02-18T22:04:39.218Z,5.80
2023-02-18T22:07:06.990Z,5.65
2023-02-18T22:09:34.770Z,5.75
2023-02-18T22:12:02.670Z,5.78
2023-02-18T22:14:30.566Z,5.65
2023-02-18T22:16:58.951Z,6.07
2023-02-18T22:19:27.013Z,6.38
2023-02-18T22:21:56.631Z,6.28
2023-02-18T22:24:24.713Z,6.05
2023-02-18T22:26:52.501Z,6.50
2023-02-18T22:29:21.107Z,6.10
2023-02-18T22:31:50.313Z,6.47
2023-02-18T22:34:18.406Z,6.35
2023-02-18T22:36:46.632Z,6.15
2023-02-18T22:39:16.569Z,5.93
2023-02-18T22:41:44.577Z,5.82
2023-02-18T22:44:14.168Z,5.65
2023-02-18T22:46:42.094Z,5.53
2023-02-18T22:49:10.183Z,5.65
2023-02-18T22:51:39.681Z,5.75
2023-02-18T22:54:10.836Z,5.68
2023-02-18T22:56:40.682Z,5.93
2023-02-18T22:59:08.713Z,5.75
2023-02-18T23:01:37.945Z,5.72
2023-02-18T23:04:08.197Z,5.35
2023-02-18T23:06:37.042Z,5.88
2023-02-18T23:09:04.971Z,5.47
2023-02-18T23:11:32.749Z,5.55
2023-02-18T23:14:21.354Z,5.47
2023-02-18T23:17:08.458Z,5.40
2023-02-18T23:19:37.602Z,5.43
2023-02-18T23:22:05.709Z,5.10
2023-02-18T23:24:34.911Z,5.03
2023-02-18T23:27:03.172Z,5.70
2023-02-18T23:29:33.649Z,5.75
2023-02-18T23:32:01.580Z,4.97
2023-02-18T23:34:29.678Z,4.88
2023-02-18T23:36:58.364Z,5.32
2023-02-18T23:39:26.754Z,5.32
2023-02-18T23:41:54.607Z,5.10
2023-02-18T23:44:23.844Z,5.32
2023-02-18T23:46:53.696Z,4.65
2023-02-18T23:49:23.164Z,4.65
2023-02-18T23:51:51.746Z,4.43
2023-02-18T23:54:20.353Z,4.72
2023-02-18T23:56:48.847Z,4.85
2023-02-18T23:59:19.865Z,4.28
